createdAt,value
2017-07-28T00:00:09.348Z,90.29
2017-07-28T00:02:35.196Z,89.71
2017-07-28T00:05:01.043Z,89.98
2017-07-28T00:07:26.955Z,89.66
2017-07-28T00:09:52.847Z,90.88
2017-07-28T00:12:18.682Z,90.18
2017-07-28T00:14:44.543Z,89.92
2017-07-28T00:17:10.350Z,89.32
2017-07-28T00:19:36.196Z,89.33
2017-07-28T00:22:02.058Z,89.16
2017-07-28T00:24:27.979Z,88.63
2017-07-28T00:26:53.789Z,89.12
2017-07-28T00:29:19.660Z,88.95
2017-07-28T00:31:45.500Z,87.75
2017-07-28T00:34:11.328Z,88.70
2017-07-28T00:36:37.211Z,89.16
2017-07-28T00:39:03.116Z,89.29
2017-07-28T00:41:28.993Z,89.36
2017-07-28T00:43:54.852Z,89.67
2017-07-28T00:46:20.754Z,89.34
2017-07-28T00:48:46.629Z,89.63
2017-07-28T00:51:12.453Z,89.15
2017-07-28T00:53:38.305Z,89.69
2017-07-28T00:56:04.265Z,89.87
2017-07-28T00:58:30.075Z,89.94
2017-07-28T01:00:55.882Z,90.69
2017-07-28T01:03:21.741Z,89.50
2017-07-28T01:05:47.548Z,88.74
2017-07-28T01:08:13.381Z,89.03
2017-07-28T01:10:39.187Z,87.71
2017-07-28T01:13:05.002Z,88.72
2017-07-28T01:15:30.909Z,89.23
2017-07-28T01:17:56.885Z,88.42
2017-07-28T01:20:22.823Z,88.54
2017-07-28T01:22:48.671Z,88.00
2017-07-28T01:25:14.528Z,90.30
2017-07-28T01:27:40.343Z,89.63
2017-07-28T01:30:06.161Z,90.44
2017-07-28T01:32:32.011Z,89.69
2017-07-28T01:34:57.950Z,89.07
2017-07-28T01:37:23.769Z,88.56
2017-07-28T01:39:49.667Z,87.83
2017-07-28T01:42:15.500Z,86.67
2017-07-28T01:44:41.416Z,87.44
2017-07-28T01:47:07.300Z,87.28
2017-07-28T01:49:33.118Z,88.00
2017-07-28T01:51:58.989Z,87.90
2017-07-28T01:54:24.962Z,88.41
2017-07-28T01:56:50.781Z,89.28
2017-07-28T01:59:16.644Z,89.52
2017-07-28T02:01:42.546Z,89.34
2017-07-28T02:04:08.474Z,89.47
2017-07-28T02:06:34.435Z,87.97
2017-07-28T02:09:00.245Z,87.81
2017-07-28T02:11:26.063Z,87.16
2017-07-28T02:13:51.902Z,87.95
2017-07-28T02:16:17.746Z,87.68
2017-07-28T02:18:43.710Z,88.51
2017-07-28T02:21:09.612Z,88.28
2017-07-28T02:23:35.559Z,87.64
2017-07-28T02:26:01.393Z,87.72
2017-07-28T02:28:27.248Z,87.51
2017-07-28T02:30:53.276Z,87.46
2017-07-28T02:33:19.090Z,87.26
2017-07-28T02:35:45.060Z,87.00
2017-07-28T02:38:10.916Z,87.75
2017-07-28T02:40:36.751Z,87.55
2017-07-28T02:43:02.578Z,87.34
2017-07-28T02:45:28.627Z,87.73
2017-07-28T02:47:54.604Z,87.97
2017-07-28T02:50:20.952Z,88.21
2017-07-28T02:52:46.783Z,88.50
2017-07-28T02:55:12.643Z,88.59
2017-07-28T02:57:38.497Z,88.74
2017-07-28T03:00:04.557Z,88.69
2017-07-28T03:02:30.475Z,88.97
2017-07-28T03:04:56.319Z,88.95
2017-07-28T03:07:22.223Z,89.51
2017-07-28T03:09:48.049Z,90.92
2017-07-28T03:12:13.997Z,91.20
2017-07-28T03:14:39.838Z,91.79
2017-07-28T03:17:05.680Z,90.74
2017-07-28T03:19:31.637Z,91.10
2017-07-28T03:21:57.509Z,90.85
2017-07-28T03:24:23.345Z,91.50
2017-07-28T03:26:49.282Z,91.75
2017-07-28T03:29:15.353Z,91.91
2017-07-28T03:31:41.205Z,91.78
2017-07-28T03:34:07.031Z,91.80
2017-07-28T03:36:33.019Z,91.99
2017-07-28T03:38:58.811Z,92.29
2017-07-28T03:41:24.645Z,92.19
2017-07-28T03:43:50.518Z,91.84
2017-07-28T03:46:17.189Z,91.15
2017-07-28T03:48:43.129Z,91.31
2017-07-28T03:51:08.980Z,90.93
2017-07-28T03:53:34.799Z,91.29
2017-07-28T03:56:00.600Z,91.21
2017-07-28T03:58:26.653Z,90.23
2017-07-28T04:00:52.565Z,90.75
2017-07-28T04:03:18.413Z,91.48
2017-07-28T04:05:44.329Z,91.39
2017-07-28T04:08:10.249Z,90.98
2017-07-28T04:10:36.057Z,91.55
2017-07-28T04:13:01.881Z,91.23
2017-07-28T04:15:27.792Z,90.60
2017-07-28T04:17:53.762Z,91.42
2017-07-28T04:20:19.597Z,91.36
2017-07-28T04:22:45.397Z,90.84
2017-07-28T04:25:11.249Z,90.15
2017-07-28T04:27:37.085Z,90.26
2017-07-28T04:30:03.085Z,90.79
2017-07-28T04:32:28.898Z,90.69
2017-07-28T04:34:54.725Z,90.74
2017-07-28T04:37:20.572Z,91.28
2017-07-28T04:39:46.549Z,91.26
2017-07-28T04:42:12.340Z,90.39
2017-07-28T04:44:38.152Z,90.19
2017-07-28T04:47:03.969Z,89.75
2017-07-28T04:49:29.825Z,89.82
2017-07-28T04:51:55.668Z,88.87
2017-07-28T04:54:21.469Z,88.36
2017-07-28T04:56:47.292Z,89.32
2017-07-28T04:59:13.108Z,89.72
2017-07-28T05:01:38.893Z,88.87
2017-07-28T05:04:04.697Z,87.79
2017-07-28T05:06:32.166Z,87.63
2017-07-28T05:08:58.005Z,88.35
2017-07-28T05:11:23.836Z,86.81
2017-07-28T05:13:49.677Z,86.29
2017-07-28T05:16:15.460Z,85.77
2017-07-28T05:18:41.269Z,85.77
2017-07-28T05:21:07.109Z,84.71
2017-07-28T05:23:32.929Z,84.13
2017-07-28T05:25:58.765Z,84.14
2017-07-28T05:28:24.565Z,83.99
2017-07-28T05:30:50.381Z,84.57
2017-07-28T05:33:16.187Z,84.15
2017-07-28T05:35:56.841Z,82.94
2017-07-28T05:38:22.673Z,82.63
2017-07-28T05:40:48.531Z,83.45
2017-07-28T05:43:14.382Z,83.29
2017-07-28T05:45:40.200Z,83.31
2017-07-28T05:48:06.012Z,81.77
2017-07-28T05:50:31.929Z,81.87
2017-07-28T05:52:57.815Z,80.20
2017-07-28T05:55:23.653Z,80.08
2017-07-28T05:57:49.481Z,79.31
2017-07-28T06:00:15.293Z,78.93
2017-07-28T06:02:41.117Z,78.93
2017-07-28T06:05:06.929Z,79.00
2017-07-28T06:07:32.781Z,77.97
2017-07-28T06:09:58.607Z,78.22
2017-07-28T06:12:24.453Z,77.96
2017-07-28T06:14:50.289Z,77.59
2017-07-28T06:17:16.086Z,77.22
2017-07-28T06:19:41.964Z,76.42
2017-07-28T06:22:07.847Z,75.60
2017-07-28T06:24:33.673Z,75.89
2017-07-28T06:26:59.517Z,75.20
2017-07-28T06:29:25.307Z,75.06
2017-07-28T06:31:51.149Z,73.81
2017-07-28T06:34:17.036Z,75.86
2017-07-28T06:36:42.829Z,74.01
2017-07-28T06:39:08.618Z,74.00
2017-07-28T06:41:34.445Z,72.83
2017-07-28T06:44:00.266Z,71.68
2017-07-28T06:46:26.072Z,69.67
2017-07-28T06:48:51.934Z,69.61
2017-07-28T06:51:17.753Z,69.03
2017-07-28T06:53:43.761Z,70.32
2017-07-28T06:56:09.926Z,68.65
2017-07-28T06:58:35.740Z,67.72
2017-07-28T07:01:01.561Z,68.14
2017-07-28T07:03:27.393Z,67.63
2017-07-28T07:05:53.205Z,68.54
2017-07-28T07:08:19.112Z,68.44
2017-07-28T07:10:44.934Z,67.28
2017-07-28T07:13:10.746Z,66.55
2017-07-28T07:15:36.573Z,67.28
2017-07-28T07:18:02.382Z,68.32
2017-07-28T07:20:28.221Z,69.24
2017-07-28T07:22:54.164Z,66.63
2017-07-28T07:25:27.164Z,66.99
2017-07-28T07:27:52.969Z,63.57
2017-07-28T07:30:18.768Z,64.35
2017-07-28T07:32:44.617Z,64.27
2017-07-28T07:35:10.461Z,60.51
2017-07-28T07:37:36.253Z,59.57
2017-07-28T07:40:02.117Z,60.93
2017-07-28T07:42:27.945Z,58.13
2017-07-28T07:44:53.748Z,57.67
2017-07-28T07:47:19.591Z,58.35
2017-07-28T07:49:45.628Z,60.95
2017-07-28T07:52:11.538Z,62.03
2017-07-28T07:54:37.364Z,62.79
2017-07-28T07:57:03.237Z,61.31
2017-07-28T07:59:29.091Z,59.85
2017-07-28T08:01:54.993Z,60.69
2017-07-28T08:04:20.853Z,61.86
2017-07-28T08:06:46.678Z,62.12
2017-07-28T08:09:12.512Z,60.18
2017-07-28T08:11:38.313Z,62.41
2017-07-28T08:14:04.120Z,60.31
2017-07-28T08:16:29.932Z,59.84
2017-07-28T08:18:55.757Z,59.36
2017-07-28T08:21:21.600Z,59.08
2017-07-28T08:23:47.414Z,59.02
2017-07-28T08:26:13.261Z,60.63
2017-07-28T08:28:39.048Z,60.36
2017-07-28T08:31:04.853Z,63.91
2017-07-28T08:33:30.693Z,64.84
2017-07-28T08:35:56.546Z,66.09
2017-07-28T08:38:22.356Z,66.78
2017-07-28T08:40:48.197Z,66.48
2017-07-28T08:43:14.014Z,66.48
2017-07-28T08:45:39.797Z,65.75
2017-07-28T08:48:05.677Z,68.05
2017-07-28T08:50:31.578Z,67.67
2017-07-28T08:52:57.409Z,67.66
2017-07-28T08:55:23.241Z,69.84
2017-07-28T08:57:49.045Z,70.10
2017-07-28T09:00:14.973Z,70.04
2017-07-28T09:02:40.883Z,69.91
2017-07-28T09:05:06.706Z,71.85
2017-07-28T09:07:32.556Z,73.77
2017-07-28T09:09:58.370Z,75.80
2017-07-28T09:12:24.157Z,77.86
2017-07-28T09:14:50.013Z,76.42
2017-07-28T09:17:15.859Z,77.55
2017-07-28T09:19:41.667Z,74.91
2017-07-28T09:22:07.501Z,74.85
2017-07-28T09:24:33.299Z,69.25
2017-07-28T09:26:59.129Z,65.01
2017-07-28T09:29:24.981Z,59.73
2017-07-28T09:31:50.776Z,58.30
2017-07-28T09:34:16.572Z,57.79
2017-07-28T09:36:42.401Z,54.32
2017-07-28T09:39:08.221Z,52.34
2017-07-28T09:41:34.066Z,52.90
2017-07-28T09:43:59.904Z,51.37
2017-07-28T09:46:25.706Z,49.84
2017-07-28T09:48:51.545Z,52.07
2017-07-28T09:51:17.445Z,49.21
2017-07-28T09:53:43.280Z,49.59
2017-07-28T09:56:09.151Z,51.43
2017-07-28T09:58:34.973Z,52.10
2017-07-28T10:01:01.087Z,51.18
2017-07-28T10:03:26.953Z,51.94
2017-07-28T10:05:52.774Z,53.73
2017-07-28T10:08:18.613Z,53.50
2017-07-28T10:10:44.418Z,54.33
2017-07-28T10:13:10.275Z,55.04
2017-07-28T10:15:36.137Z,54.55
2017-07-28T10:18:01.965Z,54.94
2017-07-28T10:20:27.802Z,54.73
2017-07-28T10:22:53.739Z,56.48
2017-07-28T10:25:19.554Z,56.68
2017-07-28T10:27:45.406Z,55.33
2017-07-28T10:30:11.236Z,52.83
2017-07-28T10:32:37.066Z,49.37
2017-07-28T10:35:02.877Z,50.77
2017-07-28T10:37:28.700Z,47.96
2017-07-28T10:39:54.530Z,46.34
2017-07-28T10:42:20.404Z,46.16
2017-07-28T10:44:46.278Z,45.39
2017-07-28T10:47:12.216Z,44.17
2017-07-28T10:49:38.192Z,47.07
2017-07-28T10:52:04.038Z,47.41
2017-07-28T10:54:29.861Z,50.64
2017-07-28T10:56:55.705Z,49.37
2017-07-28T10:59:21.674Z,50.25
2017-07-28T11:01:47.516Z,45.58
2017-07-28T11:04:13.322Z,44.78
2017-07-28T11:06:39.144Z,44.55
2017-07-28T11:09:04.980Z,44.36
2017-07-28T11:11:30.804Z,43.48
2017-07-28T11:13:56.749Z,45.20
2017-07-28T11:16:22.586Z,43.50
2017-07-28T11:18:48.420Z,43.20
2017-07-28T11:21:14.263Z,44.75
2017-07-28T11:23:40.196Z,44.54
2017-07-28T11:26:06.052Z,45.37
2017-07-28T11:28:31.857Z,42.27
2017-07-28T11:30:57.738Z,42.08
2017-07-28T11:33:23.536Z,43.92
2017-07-28T11:35:49.370Z,42.40
2017-07-28T11:38:15.222Z,43.33
2017-07-28T11:40:41.228Z,43.56
2017-07-28T11:43:07.088Z,43.04
2017-07-28T11:45:33.057Z,44.48
2017-07-28T11:47:58.876Z,42.13
2017-07-28T11:50:24.717Z,44.15
2017-07-28T11:52:50.522Z,44.08
2017-07-28T11:55:16.380Z,41.72
2017-07-28T11:57:42.270Z,42.04
2017-07-28T12:00:08.212Z,41.34
2017-07-28T12:02:36.958Z,40.99
2017-07-28T12:05:02.814Z,40.55
2017-07-28T12:07:28.621Z,39.24
2017-07-28T12:09:54.513Z,40.99
2017-07-28T12:12:20.363Z,42.54
2017-07-28T12:14:46.282Z,43.31
2017-07-28T12:17:12.201Z,44.28
2017-07-28T12:19:38.032Z,43.45
2017-07-28T12:22:03.965Z,42.51
2017-07-28T12:24:29.825Z,43.31
2017-07-28T12:26:55.630Z,40.76
2017-07-28T12:29:21.453Z,39.19
2017-07-28T12:31:47.309Z,39.57
2017-07-28T12:34:13.145Z,40.42
2017-07-28T12:36:39.068Z,41.61
2017-07-28T12:39:04.916Z,38.77
2017-07-28T12:41:30.761Z,40.17
2017-07-28T12:43:56.573Z,39.11
2017-07-28T12:46:23.518Z,41.40
2017-07-28T12:48:49.400Z,42.20
2017-07-28T12:51:15.228Z,42.70
2017-07-28T12:53:41.065Z,42.53
2017-07-28T12:56:06.892Z,38.79
2017-07-28T12:58:32.715Z,38.94
2017-07-28T13:00:58.567Z,42.22
2017-07-28T13:03:24.365Z,43.64
2017-07-28T13:05:50.213Z,44.40
2017-07-28T13:08:16.127Z,43.70
2017-07-28T13:10:41.957Z,43.71
2017-07-28T13:13:07.813Z,42.82
2017-07-28T13:15:33.713Z,42.81
2017-07-28T13:17:59.603Z,44.43
2017-07-28T13:20:25.434Z,42.65
2017-07-28T13:22:51.282Z,42.09
2017-07-28T13:25:17.095Z,43.36
2017-07-28T13:27:42.924Z,42.28
2017-07-28T13:30:08.782Z,44.16
2017-07-28T13:32:34.610Z,43.69
2017-07-28T13:35:00.412Z,44.60
2017-07-28T13:37:26.209Z,45.12
2017-07-28T13:39:52.029Z,44.10
2017-07-28T13:42:17.868Z,44.29
2017-07-28T13:44:43.712Z,44.22
2017-07-28T13:47:09.576Z,40.12
2017-07-28T13:49:35.526Z,41.08
2017-07-28T13:52:01.367Z,43.28
2017-07-28T13:54:27.194Z,45.24
2017-07-28T13:56:53.114Z,45.74
2017-07-28T13:59:18.967Z,46.20
2017-07-28T14:01:44.783Z,44.81
2017-07-28T14:04:10.612Z,44.63
2017-07-28T14:06:36.460Z,45.00
2017-07-28T14:09:02.298Z,43.50
2017-07-28T14:11:28.147Z,43.50
2017-07-28T14:13:54.052Z,45.58
2017-07-28T14:16:19.872Z,45.48
2017-07-28T14:18:45.716Z,44.42
2017-07-28T14:21:11.580Z,44.13
2017-07-28T14:23:37.373Z,41.86
2017-07-28T14:26:03.221Z,42.79
2017-07-28T14:28:29.016Z,41.56
2017-07-28T14:30:54.859Z,42.50
2017-07-28T14:33:20.666Z,44.88
2017-07-28T14:35:46.519Z,45.10
2017-07-28T14:38:12.427Z,46.04
2017-07-28T14:40:38.331Z,45.88
2017-07-28T14:43:04.152Z,44.98
2017-07-28T14:45:29.948Z,46.08
2017-07-28T14:47:55.769Z,46.64
2017-07-28T14:50:21.597Z,44.92
2017-07-28T14:52:47.424Z,43.38
2017-07-28T14:55:13.231Z,41.93
2017-07-28T14:57:39.063Z,41.26
2017-07-28T15:00:04.906Z,40.23
2017-07-28T15:02:30.814Z,38.66
2017-07-28T15:04:56.671Z,38.80
2017-07-28T15:07:22.525Z,40.63
2017-07-28T15:09:48.330Z,41.83
2017-07-28T15:12:14.169Z,39.20
2017-07-28T15:14:40.010Z,37.70
2017-07-28T15:17:05.828Z,37.85
2017-07-28T15:19:31.677Z,37.97
2017-07-28T15:21:57.522Z,39.43
2017-07-28T15:24:23.350Z,39.07
2017-07-28T15:26:49.241Z,39.13
2017-07-28T15:29:15.091Z,39.93
2017-07-28T15:31:40.923Z,40.21
2017-07-28T15:34:06.724Z,39.76
2017-07-28T15:36:32.544Z,40.23
2017-07-28T15:38:58.334Z,39.24
2017-07-28T15:41:24.186Z,39.63
2017-07-28T15:43:49.996Z,39.19
2017-07-28T15:46:15.814Z,39.46
2017-07-28T15:48:41.649Z,39.13
2017-07-28T15:51:07.436Z,39.60
2017-07-28T15:53:33.265Z,39.79
2017-07-28T15:55:59.139Z,39.84
2017-07-28T15:58:25.093Z,39.96
2017-07-28T16:00:50.931Z,40.83
2017-07-28T16:03:16.741Z,40.78
2017-07-28T16:05:42.567Z,40.89
2017-07-28T16:08:08.391Z,41.87
2017-07-28T16:10:34.230Z,42.57
2017-07-28T16:13:00.072Z,43.05
2017-07-28T16:15:25.888Z,41.57
2017-07-28T16:17:51.719Z,40.09
2017-07-28T16:20:17.631Z,44.47
2017-07-28T16:22:43.441Z,43.14
2017-07-28T16:25:09.290Z,42.18
2017-07-28T16:27:35.111Z,42.41
2017-07-28T16:30:00.999Z,41.87
2017-07-28T16:32:26.850Z,42.90
2017-07-28T16:34:52.725Z,44.71
2017-07-28T16:37:18.688Z,43.93
2017-07-28T16:39:44.589Z,44.08
2017-07-28T16:42:10.428Z,43.08
2017-07-28T16:44:36.284Z,44.11
2017-07-28T16:47:02.126Z,41.82
2017-07-28T16:49:27.933Z,43.13
2017-07-28T16:51:53.744Z,44.46
2017-07-28T16:54:19.576Z,45.40
2017-07-28T16:56:45.371Z,46.33
2017-07-28T16:59:11.213Z,48.02
2017-07-28T17:01:37.031Z,46.62
2017-07-28T17:04:02.830Z,47.56
2017-07-28T17:06:28.683Z,46.85
2017-07-28T17:08:54.481Z,47.43
2017-07-28T17:11:20.282Z,47.04
2017-07-28T17:13:46.120Z,47.40
2017-07-28T17:16:11.948Z,48.41
2017-07-28T17:18:37.745Z,49.54
2017-07-28T17:21:03.568Z,50.37
2017-07-28T17:23:29.379Z,48.59
2017-07-28T17:25:55.249Z,49.99
2017-07-28T17:28:21.158Z,49.38
2017-07-28T17:30:46.973Z,50.41
2017-07-28T17:33:12.870Z,49.68
2017-07-28T17:35:38.737Z,50.25
2017-07-28T17:38:04.558Z,52.09
2017-07-28T17:40:30.425Z,52.29
2017-07-28T17:42:56.236Z,53.54
2017-07-28T17:45:22.099Z,52.38
2017-07-28T17:47:49.442Z,51.95
2017-07-28T17:50:15.263Z,51.76
2017-07-28T17:52:41.115Z,52.81
2017-07-28T17:55:06.997Z,52.61
2017-07-28T17:57:32.843Z,53.71
2017-07-28T17:59:58.761Z,53.71
2017-07-28T18:02:24.601Z,54.14
2017-07-28T18:04:50.408Z,55.22
2017-07-28T18:07:16.228Z,55.73
2017-07-28T18:09:42.073Z,55.87
2017-07-28T18:12:07.866Z,56.52
2017-07-28T18:14:33.659Z,56.27
2017-07-28T18:16:59.500Z,56.45
2017-07-28T18:19:25.297Z,56.41
2017-07-28T18:21:51.085Z,58.18
2017-07-28T18:24:16.959Z,56.83
2017-07-28T18:26:42.777Z,57.80
2017-07-28T18:29:08.633Z,58.31
2017-07-28T18:31:34.440Z,59.26
2017-07-28T18:34:00.228Z,57.97
2017-07-28T18:36:26.077Z,58.49
2017-07-28T18:38:52.673Z,61.85
2017-07-28T18:41:18.502Z,61.89
2017-07-28T18:43:44.370Z,62.95
2017-07-28T18:46:10.177Z,62.30
2017-07-28T18:48:36.024Z,64.22
2017-07-28T18:51:01.829Z,64.43
2017-07-28T18:53:27.718Z,63.86
2017-07-28T18:55:53.526Z,64.25
2017-07-28T18:58:19.407Z,65.72
2017-07-28T19:00:45.265Z,65.56
2017-07-28T19:03:11.105Z,65.60
2017-07-28T19:05:36.910Z,64.38
2017-07-28T19:08:02.713Z,64.57
2017-07-28T19:10:28.545Z,64.40
2017-07-28T19:12:54.390Z,64.50
2017-07-28T19:15:20.177Z,63.37
2017-07-28T19:17:45.993Z,63.68
2017-07-28T19:20:11.846Z,64.65
2017-07-28T19:22:37.645Z,64.93
2017-07-28T19:25:03.501Z,65.02
2017-07-28T19:27:29.468Z,65.34
2017-07-28T19:29:55.346Z,65.64
2017-07-28T19:32:21.185Z,64.71
2017-07-28T19:34:47.160Z,67.21
2017-07-28T19:37:12.972Z,66.03
2017-07-28T19:39:38.830Z,66.12
2017-07-28T19:42:04.796Z,68.08
2017-07-28T19:44:30.725Z,68.89
2017-07-28T19:46:57.439Z,68.20
2017-07-28T19:49:23.400Z,68.96
2017-07-28T19:51:49.336Z,69.05
2017-07-28T19:54:15.175Z,66.77
2017-07-28T19:56:41.072Z,67.10
2017-07-28T19:59:06.939Z,67.99
2017-07-28T20:01:32.802Z,67.24
2017-07-28T20:03:58.700Z,68.85
2017-07-28T20:06:24.665Z,66.30
2017-07-28T20:08:50.514Z,64.96
2017-07-28T20:11:16.508Z,64.62
2017-07-28T20:13:42.369Z,64.84
2017-07-28T20:16:08.436Z,66.85
2017-07-28T20:18:34.294Z,67.39
2017-07-28T20:21:00.124Z,70.06
2017-07-28T20:23:26.047Z,70.63
2017-07-28T20:25:51.883Z,67.39
2017-07-28T20:28:17.783Z,69.27
2017-07-28T20:30:43.765Z,70.45
2017-07-28T20:33:10.229Z,71.10
2017-07-28T20:35:36.180Z,70.63
2017-07-28T20:38:02.107Z,70.40
2017-07-28T20:40:27.989Z,70.48
2017-07-28T20:42:53.915Z,70.77
2017-07-28T20:45:19.839Z,70.35
2017-07-28T20:47:45.873Z,71.05
2017-07-28T20:50:11.909Z,71.88
2017-07-28T20:52:37.848Z,72.50
2017-07-28T20:55:03.698Z,70.87
2017-07-28T20:57:29.517Z,72.32
2017-07-28T20:59:55.415Z,72.35
2017-07-28T21:02:21.363Z,73.08
2017-07-28T21:04:47.296Z,73.54
2017-07-28T21:07:13.148Z,74.45
2017-07-28T21:09:39.048Z,73.12
2017-07-28T21:12:04.992Z,72.03
2017-07-28T21:14:30.830Z,73.13
2017-07-28T21:16:56.638Z,74.05
2017-07-28T21:19:22.515Z,74.33
2017-07-28T21:21:48.548Z,74.63
2017-07-28T21:24:14.459Z,73.72
2017-07-28T21:26:40.327Z,73.35
2017-07-28T21:29:06.162Z,73.30
2017-07-28T21:31:31.991Z,73.05
2017-07-28T21:33:57.822Z,73.30
2017-07-28T21:36:23.800Z,74.92
2017-07-28T21:38:49.636Z,76.13
2017-07-28T21:41:15.792Z,75.88
2017-07-28T21:43:41.626Z,75.61
2017-07-28T21:46:07.460Z,75.31
2017-07-28T21:48:33.293Z,75.98
2017-07-28T21:51:00.224Z,75.88
2017-07-28T21:53:26.208Z,74.95
2017-07-28T21:55:52.036Z,75.01
2017-07-28T21:58:17.939Z,77.14
2017-07-28T22:00:43.905Z,77.65
2017-07-28T22:03:09.826Z,76.61
2017-07-28T22:05:35.649Z,76.33
2017-07-28T22:08:01.464Z,76.01
2017-07-28T22:10:27.295Z,76.11
2017-07-28T22:12:53.124Z,76.42
2017-07-28T22:15:19.042Z,77.67
2017-07-28T22:17:44.942Z,78.12
2017-07-28T22:20:10.771Z,77.98
2017-07-28T22:22:36.717Z,76.77
2017-07-28T22:25:02.629Z,76.52
2017-07-28T22:27:28.541Z,75.53
2017-07-28T22:29:54.465Z,76.39
2017-07-28T22:32:20.332Z,77.77
2017-07-28T22:34:46.223Z,78.08
2017-07-28T22:37:12.235Z,77.46
2017-07-28T22:39:38.115Z,75.79
2017-07-28T22:42:03.952Z,77.35
2017-07-28T22:44:29.802Z,77.79
2017-07-28T22:46:55.660Z,77.57
2017-07-28T22:49:21.540Z,77.25
2017-07-28T22:51:47.442Z,77.49
2017-07-28T22:54:13.278Z,77.73
2017-07-28T22:56:39.149Z,77.93
2017-07-28T22:59:05.107Z,77.56
2017-07-28T23:01:30.944Z,77.60
2017-07-28T23:03:57.071Z,77.84
2017-07-28T23:06:22.967Z,78.04
2017-07-28T23:08:48.796Z,78.28
2017-07-28T23:11:14.674Z,78.24
2017-07-28T23:13:40.619Z,78.52
2017-07-28T23:16:06.466Z,77.32
2017-07-28T23:18:32.317Z,77.49
2017-07-28T23:20:58.364Z,77.33
2017-07-28T23:23:24.342Z,78.29
2017-07-28T23:25:50.182Z,76.94
2017-07-28T23:28:16.003Z,76.08
2017-07-28T23:30:41.854Z,74.19
2017-07-28T23:33:07.796Z,76.37
2017-07-28T23:35:33.637Z,76.55
2017-07-28T23:37:59.472Z,76.31
2017-07-28T23:40:25.332Z,74.50
2017-07-28T23:42:51.258Z,72.24
2017-07-28T23:45:17.187Z,76.49
2017-07-28T23:47:43.091Z,76.61
2017-07-28T23:50:08.957Z,77.42
2017-07-28T23:52:34.832Z,77.60
2017-07-28T23:55:00.775Z,77.19
2017-07-28T23:57:26.608Z,78.19
2017-07-28T23:59:52.535Z,75.81
